createdAt,value
2017-06-27T00:01:10.866Z,1008.59
2017-06-27T00:02:10.801Z,1008.6
2017-06-27T00:03:10.738Z,1008.62
2017-06-27T00:04:10.675Z,1008.62
2017-06-27T00:05:10.612Z,1008.64
2017-06-27T00:06:10.553Z,1008.63
2017-06-27T00:07:10.487Z,1008.62
2017-06-27T00:08:10.425Z,1008.63
2017-06-27T00:09:10.361Z,1008.61
2017-06-27T00:10:10.301Z,1008.65
2017-06-27T00:11:10.237Z,1008.63
2017-06-27T00:12:10.175Z,1008.62
2017-06-27T00:13:10.112Z,1008.67
2017-06-27T00:14:10.048Z,1008.68
2017-06-27T00:15:09.987Z,1008.65
2017-06-27T00:16:09.923Z,1008.66
2017-06-27T00:17:09.861Z,1008.63
2017-06-27T00:18:09.799Z,1008.63
2017-06-27T00:19:09.736Z,1008.63
2017-06-27T00:20:09.676Z,1008.6
2017-06-27T00:21:09.612Z,1008.63
2017-06-27T00:22:09.547Z,1008.61
2017-06-27T00:23:09.485Z,1008.62
2017-06-27T00:24:09.423Z,1008.63
2017-06-27T00:25:09.360Z,1008.61
2017-06-27T00:26:09.297Z,1008.62
2017-06-27T00:27:09.235Z,1008.65
2017-06-27T00:28:09.173Z,1008.68
2017-06-27T00:29:09.110Z,1008.66
2017-06-27T00:30:09.046Z,1008.68
2017-06-27T00:31:08.984Z,1008.7
2017-06-27T00:32:08.922Z,1008.69
2017-06-27T00:33:08.859Z,1008.69
2017-06-27T00:34:08.796Z,1008.72
2017-06-27T00:35:08.733Z,1008.74
2017-06-27T00:36:08.672Z,1008.71
2017-06-27T00:37:08.608Z,1008.72
2017-06-27T00:38:08.545Z,1008.72
2017-06-27T00:39:08.483Z,1008.73
2017-06-27T00:40:08.422Z,1008.74
2017-06-27T00:41:08.357Z,1008.7
2017-06-27T00:42:08.295Z,1008.69
2017-06-27T00:43:08.233Z,1008.7
2017-06-27T00:44:08.170Z,1008.74
2017-06-27T00:45:08.107Z,1008.74
2017-06-27T00:46:08.045Z,1008.72
2017-06-27T00:47:07.982Z,1008.74
2017-06-27T00:48:07.919Z,1008.73
2017-06-27T00:49:07.877Z,1008.74
2017-06-27T00:50:07.794Z,1008.74
2017-06-27T00:51:07.732Z,1008.76
2017-06-27T00:52:07.668Z,1008.75
2017-06-27T00:53:07.606Z,1008.77
2017-06-27T00:54:07.544Z,1008.73
2017-06-27T00:55:07.482Z,1008.72
2017-06-27T00:56:07.418Z,1008.74
2017-06-27T00:57:07.356Z,1008.72
2017-06-27T00:58:07.295Z,1008.71
2017-06-27T00:59:07.240Z,1008.71
2017-06-27T01:00:07.168Z,1008.67
2017-06-27T01:01:07.108Z,1008.67
2017-06-27T01:02:07.043Z,1008.66
2017-06-27T01:03:06.979Z,1008.67
2017-06-27T01:04:06.917Z,1008.61
2017-06-27T01:05:06.855Z,1008.61
2017-06-27T01:06:06.791Z,1008.61
2017-06-27T01:07:06.729Z,1008.58
2017-06-27T01:08:06.667Z,1008.57
2017-06-27T01:09:06.604Z,1008.58
2017-06-27T01:10:06.541Z,1008.56
2017-06-27T01:11:06.478Z,1008.57
2017-06-27T01:12:06.417Z,1008.54
2017-06-27T01:13:06.354Z,1008.57
2017-06-27T01:14:06.291Z,1008.56
2017-06-27T01:15:06.229Z,1008.6
2017-06-27T01:16:06.166Z,1008.58
2017-06-27T01:17:06.102Z,1008.57
2017-06-27T01:18:06.041Z,1008.55
2017-06-27T01:19:05.977Z,1008.53
2017-06-27T01:20:05.915Z,1008.52
2017-06-27T01:21:05.853Z,1008.53
2017-06-27T01:22:05.789Z,1008.55
2017-06-27T01:23:05.729Z,1008.58
2017-06-27T01:24:05.664Z,1008.58
2017-06-27T01:25:05.604Z,1008.57
2017-06-27T01:26:05.539Z,1008.56
2017-06-27T01:27:05.475Z,1008.58
2017-06-27T01:28:05.412Z,1008.54
2017-06-27T01:29:05.351Z,1008.52
2017-06-27T01:30:05.288Z,1008.51
2017-06-27T01:31:05.226Z,1008.5
2017-06-27T01:32:05.163Z,1008.54
2017-06-27T01:33:05.102Z,1008.57
2017-06-27T01:34:05.038Z,1008.59
2017-06-27T01:35:04.976Z,1008.6
2017-06-27T01:36:04.914Z,1008.55
2017-06-27T01:37:04.852Z,1008.53
2017-06-27T01:38:04.786Z,1008.51
2017-06-27T01:39:04.725Z,1008.5
2017-06-27T01:40:04.663Z,1008.51
2017-06-27T01:41:04.602Z,1008.57
2017-06-27T01:42:04.537Z,1008.55
2017-06-27T01:43:04.473Z,1008.54
2017-06-27T01:44:04.413Z,1008.53
2017-06-27T01:45:04.350Z,1008.55
2017-06-27T01:46:04.287Z,1008.56
2017-06-27T01:47:04.226Z,1008.58
2017-06-27T01:48:04.162Z,1008.61
2017-06-27T01:49:04.099Z,1008.62
2017-06-27T01:50:04.036Z,1008.61
2017-06-27T01:51:03.975Z,1008.6
2017-06-27T01:52:03.912Z,1008.63
2017-06-27T01:53:03.849Z,1008.62
2017-06-27T01:54:03.785Z,1008.65
2017-06-27T01:55:03.723Z,1008.62
2017-06-27T01:56:03.662Z,1008.6
2017-06-27T01:57:03.600Z,1008.62
2017-06-27T01:58:03.535Z,1008.6
2017-06-27T01:59:03.472Z,1008.66
2017-06-27T02:00:03.408Z,1008.65
2017-06-27T02:01:03.348Z,1008.67
2017-06-27T02:02:03.283Z,1008.69
2017-06-27T02:03:03.222Z,1008.68
2017-06-27T02:04:03.159Z,1008.68
2017-06-27T02:05:03.096Z,1008.68
2017-06-27T02:06:03.034Z,1008.65
2017-06-27T02:07:02.971Z,1008.65
2017-06-27T02:08:02.908Z,1008.69
2017-06-27T02:09:02.848Z,1008.67
2017-06-27T02:10:02.792Z,1008.69
2017-06-27T02:11:02.721Z,1008.68
2017-06-27T02:12:02.658Z,1008.73
2017-06-27T02:13:02.595Z,1008.71
2017-06-27T02:14:02.533Z,1008.75
2017-06-27T02:15:02.491Z,1008.72
2017-06-27T02:16:02.407Z,1008.75
2017-06-27T02:17:02.345Z,1008.69
2017-06-27T02:18:02.291Z,1008.71
2017-06-27T02:19:02.218Z,1008.72
2017-06-27T02:20:02.156Z,1008.74
2017-06-27T02:21:02.096Z,1008.73
2017-06-27T02:22:02.032Z,1008.74
2017-06-27T02:23:01.969Z,1008.71
2017-06-27T02:24:01.906Z,1008.77
2017-06-27T02:25:01.844Z,1008.75
2017-06-27T02:26:01.781Z,1008.74
2017-06-27T02:27:01.717Z,1008.75
2017-06-27T02:28:01.655Z,1008.73
2017-06-27T02:29:01.593Z,1008.71
2017-06-27T02:30:01.533Z,1008.73
2017-06-27T02:31:01.467Z,1008.76
2017-06-27T02:32:01.405Z,1008.77
2017-06-27T02:33:01.342Z,1008.75
2017-06-27T02:34:01.280Z,1008.75
2017-06-27T02:35:01.216Z,1008.77
2017-06-27T02:36:01.154Z,1008.75
2017-06-27T02:37:01.092Z,1008.74
2017-06-27T02:38:01.028Z,1008.76
2017-06-27T02:39:00.966Z,1008.75
2017-06-27T02:40:00.903Z,1008.75
2017-06-27T02:41:00.840Z,1008.77
2017-06-27T02:42:00.778Z,1008.78
2017-06-27T02:43:00.716Z,1008.75
2017-06-27T02:44:00.653Z,1008.8
2017-06-27T02:45:00.589Z,1008.77
2017-06-27T02:46:00.527Z,1008.77
2017-06-27T02:47:00.465Z,1008.76
2017-06-27T02:48:00.402Z,1008.8
2017-06-27T02:49:00.338Z,1008.77
2017-06-27T02:50:00.276Z,1008.8
2017-06-27T02:51:00.214Z,1008.8
2017-06-27T02:52:00.151Z,1008.79
2017-06-27T02:53:00.089Z,1008.83
2017-06-27T02:54:00.026Z,1008.85
2017-06-27T02:54:59.965Z,1008.85
2017-06-27T02:55:59.900Z,1008.88
2017-06-27T02:56:59.836Z,1008.87
2017-06-27T02:57:59.775Z,1008.9
2017-06-27T02:58:59.712Z,1008.86
2017-06-27T02:59:59.649Z,1008.9
2017-06-27T03:00:59.586Z,1008.89
2017-06-27T03:01:59.527Z,1008.89
2017-06-27T03:02:59.464Z,1008.87
2017-06-27T03:03:59.398Z,1008.88
2017-06-27T03:04:59.336Z,1008.88
2017-06-27T03:05:59.274Z,1008.88
2017-06-27T03:06:59.209Z,1008.91
2017-06-27T03:07:59.148Z,1008.94
2017-06-27T03:08:59.086Z,1008.92
2017-06-27T03:09:59.023Z,1008.94
2017-06-27T03:10:58.961Z,1008.95
2017-06-27T03:11:58.898Z,1008.98
2017-06-27T03:12:58.837Z,1008.94
2017-06-27T03:13:58.772Z,1008.98
2017-06-27T03:14:58.710Z,1008.97
2017-06-27T03:15:58.647Z,1008.93
2017-06-27T03:16:58.587Z,1008.92
2017-06-27T03:17:58.521Z,1008.93
2017-06-27T03:18:58.460Z,1008.97
2017-06-27T03:19:58.399Z,1008.99
2017-06-27T03:20:58.332Z,1009.02
2017-06-27T03:21:58.272Z,1009.01
2017-06-27T03:22:58.209Z,1009
2017-06-27T03:23:58.155Z,1009.05
2017-06-27T03:24:58.084Z,1009.06
2017-06-27T03:25:58.023Z,1009.06
2017-06-27T03:26:57.958Z,1009.06
2017-06-27T03:27:57.895Z,1009.03
2017-06-27T03:28:57.832Z,1009.01
2017-06-27T03:29:57.769Z,1009.05
2017-06-27T03:30:57.707Z,1009.04
2017-06-27T03:31:57.644Z,1009.06
2017-06-27T03:32:57.582Z,1009.07
2017-06-27T03:33:57.519Z,1009.08
2017-06-27T03:34:57.659Z,1009.04
2017-06-27T03:35:57.393Z,1009.05
2017-06-27T03:36:57.330Z,1009.05
2017-06-27T03:37:57.268Z,1009.04
2017-06-27T03:38:57.206Z,1009.07
2017-06-27T03:39:57.142Z,1009.09
2017-06-27T03:40:57.080Z,1009.09
2017-06-27T03:41:57.017Z,1009.12
2017-06-27T03:42:57.156Z,1009.11
2017-06-27T03:43:56.892Z,1009.09
2017-06-27T03:44:56.829Z,1009.12
2017-06-27T03:45:56.767Z,1009.12
2017-06-27T03:46:56.702Z,1009.1
2017-06-27T03:47:56.641Z,1009.12
2017-06-27T03:48:56.579Z,1009.13
2017-06-27T03:49:56.516Z,1009.13
2017-06-27T03:50:56.454Z,1009.15
2017-06-27T03:51:56.390Z,1009.15
2017-06-27T03:52:56.328Z,1009.17
2017-06-27T03:53:56.265Z,1009.15
2017-06-27T03:54:56.203Z,1009.18
2017-06-27T03:56:08.877Z,1009.17
2017-06-27T03:56:56.076Z,1009.16
2017-06-27T03:57:56.013Z,1009.18
2017-06-27T03:58:55.951Z,1009.15
2017-06-27T03:59:55.889Z,1009.16
2017-06-27T04:00:55.827Z,1009.16
2017-06-27T04:01:55.762Z,1009.19
2017-06-27T04:02:55.700Z,1009.15
2017-06-27T04:03:55.638Z,1009.15
2017-06-27T04:04:55.574Z,1009.43
2017-06-27T04:05:55.512Z,1009.3
2017-06-27T04:06:55.450Z,1009.33
2017-06-27T04:07:55.387Z,1009.33
2017-06-27T04:08:55.323Z,1009.33
2017-06-27T04:09:55.276Z,1009.32
2017-06-27T04:10:55.205Z,1009.35
2017-06-27T04:11:55.141Z,1009.32
2017-06-27T04:12:55.077Z,1009.35
2017-06-27T04:13:55.015Z,1009.34
2017-06-27T04:14:54.952Z,1009.36
2017-06-27T04:15:54.889Z,1009.29
2017-06-27T04:16:54.828Z,1009.3
2017-06-27T04:17:54.764Z,1009.3
2017-06-27T04:18:54.701Z,1009.29
2017-06-27T04:19:54.638Z,1009.29
2017-06-27T04:20:54.575Z,1009.27
2017-06-27T04:21:54.513Z,1009.21
2017-06-27T04:22:54.450Z,1009.2
2017-06-27T04:23:54.389Z,1009.19
2017-06-27T04:24:54.324Z,1009.17
2017-06-27T04:25:54.270Z,1009.14
2017-06-27T04:26:54.197Z,1009.14
2017-06-27T04:27:54.136Z,1009.15
2017-06-27T04:28:54.073Z,1009.18
2017-06-27T04:29:54.010Z,1009.22
2017-06-27T04:30:53.947Z,1009.22
2017-06-27T04:31:53.884Z,1009.18
2017-06-27T04:32:54.022Z,1009.2
2017-06-27T04:33:53.754Z,1009.18
2017-06-27T04:34:53.691Z,1009.18
2017-06-27T04:35:53.628Z,1009.17
2017-06-27T04:36:53.566Z,1009.19
2017-06-27T04:37:53.502Z,1009.17
2017-06-27T04:38:53.439Z,1009.15
2017-06-27T04:39:53.376Z,1009.11
2017-06-27T04:40:53.315Z,1009.13
2017-06-27T04:41:53.250Z,1009.13
2017-06-27T04:42:53.187Z,1009.1
2017-06-27T04:43:53.125Z,1009.06
2017-06-27T04:44:53.062Z,1009.07
2017-06-27T04:45:52.999Z,1009.08
2017-06-27T04:46:52.937Z,1009.1
2017-06-27T04:47:52.874Z,1009.1
2017-06-27T04:48:52.811Z,1009.08
2017-06-27T04:49:52.747Z,1009.05
2017-06-27T04:50:52.686Z,1009.09
2017-06-27T04:51:52.623Z,1009.04
2017-06-27T04:52:52.560Z,1009.08
2017-06-27T04:53:52.496Z,1009.04
2017-06-27T04:54:52.433Z,1009.05
2017-06-27T04:55:52.373Z,1009.02
2017-06-27T04:56:52.307Z,1009
2017-06-27T04:57:52.245Z,1008.96
2017-06-27T04:58:52.181Z,1008.93
2017-06-27T04:59:52.118Z,1008.93
2017-06-27T05:00:52.055Z,1008.91
2017-06-27T05:01:51.992Z,1008.9
2017-06-27T05:02:51.930Z,1008.88
2017-06-27T05:03:51.866Z,1008.9
2017-06-27T05:04:51.802Z,1008.91
2017-06-27T05:05:51.741Z,1008.89
2017-06-27T05:06:51.677Z,1008.89
2017-06-27T05:07:51.612Z,1008.89
2017-06-27T05:08:51.551Z,1008.91
2017-06-27T05:09:51.488Z,1008.9
2017-06-27T05:10:51.433Z,1008.91
2017-06-27T05:11:51.361Z,1008.94
2017-06-27T05:12:51.319Z,1008.89
2017-06-27T05:13:51.236Z,1008.95
2017-06-27T05:14:51.172Z,1008.92
2017-06-27T05:15:51.359Z,1008.91
2017-06-27T05:16:51.047Z,1008.92
2017-06-27T05:17:50.983Z,1008.9
2017-06-27T05:18:50.920Z,1008.92
2017-06-27T05:19:50.859Z,1008.95
2017-06-27T05:20:50.796Z,1008.95
2017-06-27T05:21:50.732Z,1008.93
2017-06-27T05:22:50.668Z,1008.92
2017-06-27T05:23:50.605Z,1008.9
2017-06-27T05:24:50.543Z,1008.92
2017-06-27T05:25:50.478Z,1008.89
2017-06-27T05:26:50.415Z,1008.89
2017-06-27T05:27:50.353Z,1008.9
2017-06-27T05:28:50.289Z,1008.89
2017-06-27T05:29:50.227Z,1008.89
2017-06-27T05:30:50.163Z,1008.88
2017-06-27T05:31:50.101Z,1008.92
2017-06-27T05:32:50.037Z,1008.9
2017-06-27T05:33:49.974Z,1008.93
2017-06-27T05:34:49.911Z,1008.93
2017-06-27T05:35:49.849Z,1008.96
2017-06-27T05:36:49.784Z,1008.94
2017-06-27T05:37:49.721Z,1008.98
2017-06-27T05:38:49.658Z,1008.98
2017-06-27T05:39:49.594Z,1008.97
2017-06-27T05:40:49.532Z,1009
2017-06-27T05:41:49.470Z,1009.02
2017-06-27T05:42:49.407Z,1009.05
2017-06-27T05:43:49.341Z,1009.02
2017-06-27T05:44:49.279Z,1009.03
2017-06-27T05:45:49.216Z,1009.06
2017-06-27T05:46:49.155Z,1009.08
2017-06-27T05:47:49.091Z,1009.09
2017-06-27T05:48:49.027Z,1009.07
2017-06-27T05:49:48.964Z,1009.11
2017-06-27T05:50:48.901Z,1009.11
2017-06-27T05:51:48.838Z,1009.12
2017-06-27T05:52:48.775Z,1009.16
2017-06-27T05:53:48.711Z,1009.14
2017-06-27T05:54:48.648Z,1009.12
2017-06-27T05:55:48.583Z,1009.12
2017-06-27T05:56:48.523Z,1009.13
2017-06-27T05:57:48.459Z,1009.07
2017-06-27T05:58:48.395Z,1009.1
2017-06-27T05:59:48.333Z,1009.15
2017-06-27T06:00:48.271Z,1009.14
2017-06-27T06:01:48.206Z,1009.14
2017-06-27T06:02:48.142Z,1009.15
2017-06-27T06:03:48.079Z,1009.13
2017-06-27T06:04:48.016Z,1009.12
2017-06-27T06:05:47.954Z,1009.11
2017-06-27T06:06:47.890Z,1009.13
2017-06-27T06:07:47.827Z,1009.1
2017-06-27T06:08:47.764Z,1009.13
2017-06-27T06:09:47.700Z,1009.13
2017-06-27T06:10:47.639Z,1009.16
2017-06-27T06:11:47.574Z,1009.13
2017-06-27T06:12:47.510Z,1009.14
2017-06-27T06:13:47.447Z,1009.14
2017-06-27T06:14:47.386Z,1009.15
2017-06-27T06:15:47.322Z,1009.15
2017-06-27T06:16:47.258Z,1009.19
2017-06-27T06:17:47.194Z,1009.19
2017-06-27T06:18:47.132Z,1009.17
2017-06-27T06:19:47.069Z,1009.16
2017-06-27T06:20:47.005Z,1009.11
2017-06-27T06:21:46.943Z,1009.09
2017-06-27T06:22:46.880Z,1009.12
2017-06-27T06:23:46.816Z,1009.13
2017-06-27T06:24:46.753Z,1009.14
2017-06-27T06:25:46.689Z,1009.13
2017-06-27T06:26:46.627Z,1009.15
2017-06-27T06:27:46.563Z,1009.14
2017-06-27T06:28:46.500Z,1009.1
2017-06-27T06:29:46.438Z,1009.11
2017-06-27T06:30:46.373Z,1009.11
2017-06-27T06:31:46.311Z,1009.08
2017-06-27T06:32:46.247Z,1009.09
2017-06-27T06:33:46.185Z,1009.1
2017-06-27T06:34:46.120Z,1009.1
2017-06-27T06:35:46.058Z,1009.06
2017-06-27T06:36:45.995Z,1009.06
2017-06-27T06:37:45.931Z,1009.07
2017-06-27T06:38:45.868Z,1009.05
2017-06-27T06:39:45.804Z,1009.09
2017-06-27T06:40:45.750Z,1009.13
2017-06-27T06:41:45.678Z,1009.12
2017-06-27T06:42:45.615Z,1009.11
2017-06-27T06:43:45.552Z,1009.08
2017-06-27T06:44:45.691Z,1009.06
2017-06-27T06:45:45.427Z,1009.04
2017-06-27T06:46:45.363Z,1009.06
2017-06-27T06:47:45.299Z,1009.07
2017-06-27T06:48:45.236Z,1009.06
2017-06-27T06:49:45.172Z,1009.04
2017-06-27T06:50:45.108Z,1009.06
2017-06-27T06:51:45.046Z,1009.08
2017-06-27T06:52:44.983Z,1009.04
2017-06-27T06:53:44.920Z,1009.07
2017-06-27T06:54:44.858Z,1009.07
2017-06-27T06:55:44.798Z,1009.09
2017-06-27T06:56:44.731Z,1009.08
2017-06-27T06:57:44.667Z,1009.08
2017-06-27T06:58:44.605Z,1009.05
2017-06-27T06:59:44.542Z,1009.03
2017-06-27T07:00:44.478Z,1009.06
2017-06-27T07:01:44.415Z,1009.07
2017-06-27T07:02:44.352Z,1009.03
2017-06-27T07:03:44.288Z,1009.1
2017-06-27T07:04:44.225Z,1009.09
2017-06-27T07:05:44.164Z,1009.06
2017-06-27T07:06:44.099Z,1009.08
2017-06-27T07:07:44.037Z,1009.06
2017-06-27T07:08:43.973Z,1009.08
2017-06-27T07:09:43.911Z,1009.11
2017-06-27T07:10:43.847Z,1009.08
2017-06-27T07:11:43.783Z,1009.11
2017-06-27T07:12:43.720Z,1009.15
2017-06-27T07:13:43.658Z,1009.13
2017-06-27T07:14:43.593Z,1009.1
2017-06-27T07:15:43.530Z,1009.11
2017-06-27T07:16:43.468Z,1009.1
2017-06-27T07:17:43.405Z,1009.11
2017-06-27T07:18:43.341Z,1009.16
2017-06-27T07:19:43.278Z,1009.09
2017-06-27T07:20:43.216Z,1009.07
2017-06-27T07:21:43.152Z,1009.09
2017-06-27T07:22:43.089Z,1009.09
2017-06-27T07:23:43.027Z,1009.1
2017-06-27T07:24:42.964Z,1009.12
2017-06-27T07:25:42.899Z,1009.16
2017-06-27T07:26:42.836Z,1009.18
2017-06-27T07:27:42.773Z,1009.18
2017-06-27T07:28:42.711Z,1009.15
2017-06-27T07:29:42.646Z,1009.15
2017-06-27T07:30:42.583Z,1009.14
2017-06-27T07:31:42.519Z,1009.14
2017-06-27T07:32:42.458Z,1009.12
2017-06-27T07:33:42.393Z,1009.12
2017-06-27T07:34:42.333Z,1009.05
2017-06-27T07:35:42.269Z,1009.09
2017-06-27T07:36:42.203Z,1009.07
2017-06-27T07:37:42.141Z,1009.12
2017-06-27T07:38:42.081Z,1009.1
2017-06-27T07:39:42.016Z,1009.1
2017-06-27T07:40:41.952Z,1009.07
2017-06-27T07:41:41.894Z,1009.09
2017-06-27T07:42:41.824Z,1009.09
2017-06-27T07:43:41.764Z,1009.08
2017-06-27T07:44:41.699Z,1009.09
2017-06-27T07:45:41.636Z,1009.08
2017-06-27T07:46:41.572Z,1009.07
2017-06-27T07:47:41.508Z,1009.06
2017-06-27T07:48:41.446Z,1009.02
2017-06-27T07:49:41.384Z,1009
2017-06-27T07:50:41.321Z,1009.01
2017-06-27T07:51:41.256Z,1009.03
2017-06-27T07:52:41.205Z,1008.99
2017-06-27T07:53:41.132Z,1008.97
2017-06-27T07:54:41.069Z,1008.96
2017-06-27T07:55:41.005Z,1008.95
2017-06-27T07:56:40.943Z,1008.97
2017-06-27T07:57:40.885Z,1008.93
2017-06-27T07:58:40.818Z,1008.95
2017-06-27T07:59:40.753Z,1008.92
2017-06-27T08:00:40.690Z,1008.94
2017-06-27T08:01:40.627Z,1008.95
2017-06-27T08:02:40.563Z,1008.89
2017-06-27T08:03:40.502Z,1008.87
2017-06-27T08:04:40.438Z,1008.87
2017-06-27T08:05:40.626Z,1008.83
2017-06-27T08:06:40.320Z,1008.86
2017-06-27T08:07:40.250Z,1008.81
2017-06-27T08:08:40.186Z,1008.83
2017-06-27T08:09:40.123Z,1008.79
2017-06-27T08:10:40.311Z,1008.85
2017-06-27T08:11:39.996Z,1008.88
2017-06-27T08:12:39.933Z,1008.84
2017-06-27T08:13:39.869Z,1008.84
2017-06-27T08:14:39.813Z,1008.84
2017-06-27T08:15:39.745Z,1008.84
2017-06-27T08:16:39.695Z,1008.89
2017-06-27T08:17:39.617Z,1008.89
2017-06-27T08:18:39.562Z,1008.85
2017-06-27T08:19:39.494Z,1008.85
2017-06-27T08:20:39.438Z,1008.84
2017-06-27T08:21:39.366Z,1008.79
2017-06-27T08:22:39.312Z,1008.78
2017-06-27T08:23:39.241Z,1008.8
2017-06-27T08:24:39.177Z,1008.85
2017-06-27T08:25:39.115Z,1008.84
2017-06-27T08:26:39.052Z,1008.84
2017-06-27T08:27:38.987Z,1008.84
2017-06-27T08:28:38.927Z,1008.82
2017-06-27T08:29:38.863Z,1008.82
2017-06-27T08:30:38.800Z,1008.85
2017-06-27T08:31:38.737Z,1008.8
2017-06-27T08:32:38.674Z,1008.79
2017-06-27T08:33:38.611Z,1008.79
2017-06-27T08:34:38.548Z,1008.8
2017-06-27T08:35:38.486Z,1008.82
2017-06-27T08:36:38.424Z,1008.8
2017-06-27T08:37:38.361Z,1008.79
2017-06-27T08:38:38.297Z,1008.78
2017-06-27T08:39:38.235Z,1008.78
2017-06-27T08:40:38.275Z,1008.75
2017-06-27T08:41:38.460Z,1008.7
2017-06-27T08:42:38.048Z,1008.72
2017-06-27T08:43:37.984Z,1008.73
2017-06-27T08:44:37.927Z,1008.73
2017-06-27T08:45:37.860Z,1008.72
2017-06-27T08:46:37.796Z,1008.74
2017-06-27T08:47:37.737Z,1008.75
2017-06-27T08:48:37.671Z,1008.73
2017-06-27T08:49:37.606Z,1008.74
2017-06-27T08:50:37.546Z,1008.76
2017-06-27T08:51:37.482Z,1008.74
2017-06-27T08:52:37.425Z,1008.74
2017-06-27T08:53:37.357Z,1008.74
2017-06-27T08:54:37.295Z,1008.77
2017-06-27T08:55:37.232Z,1008.76
2017-06-27T08:56:37.171Z,1008.74
2017-06-27T08:57:37.107Z,1008.75
2017-06-27T08:58:37.045Z,1008.77
2017-06-27T08:59:36.983Z,1008.78
2017-06-27T09:00:36.923Z,1008.78
2017-06-27T09:01:36.857Z,1008.76
2017-06-27T09:02:36.795Z,1008.78
2017-06-27T09:03:36.733Z,1008.76
2017-06-27T09:04:36.669Z,1008.76
2017-06-27T09:05:36.608Z,1008.76
2017-06-27T09:06:36.545Z,1008.74
2017-06-27T09:07:36.485Z,1008.78
2017-06-27T09:08:36.420Z,1008.75
2017-06-27T09:09:36.357Z,1008.74
2017-06-27T09:10:36.296Z,1008.76
2017-06-27T09:11:36.232Z,1008.73
2017-06-27T09:12:36.169Z,1008.74
2017-06-27T09:13:36.107Z,1008.73
2017-06-27T09:14:36.045Z,1008.76
2017-06-27T09:15:35.981Z,1008.77
2017-06-27T09:16:35.920Z,1008.74
2017-06-27T09:17:36.108Z,1008.7
2017-06-27T09:18:35.796Z,1008.76
2017-06-27T09:19:35.732Z,1008.71
2017-06-27T09:20:35.670Z,1008.71
2017-06-27T09:21:35.609Z,1008.7
2017-06-27T09:22:35.545Z,1008.71
2017-06-27T09:23:35.483Z,1008.68
2017-06-27T09:24:35.422Z,1008.68
2017-06-27T09:25:35.360Z,1008.67
2017-06-27T09:26:35.296Z,1008.7
2017-06-27T09:27:35.234Z,1008.7
2017-06-27T09:28:35.173Z,1008.67
2017-06-27T09:29:35.109Z,1008.67
2017-06-27T09:30:35.048Z,1008.69
2017-06-27T09:31:34.985Z,1008.66
2017-06-27T09:32:34.924Z,1008.68
2017-06-27T09:33:34.859Z,1008.67
2017-06-27T09:34:34.799Z,1008.67
2017-06-27T09:35:34.737Z,1008.65
2017-06-27T09:36:34.673Z,1008.65
2017-06-27T09:37:34.611Z,1008.67
2017-06-27T09:38:34.550Z,1008.67
2017-06-27T09:39:34.489Z,1008.68
2017-06-27T09:40:34.576Z,1008.7
2017-06-27T09:41:34.362Z,1008.7
2017-06-27T09:42:34.301Z,1008.66
2017-06-27T09:43:34.239Z,1008.69
2017-06-27T09:44:34.176Z,1008.71
2017-06-27T09:45:34.113Z,1008.68
2017-06-27T09:46:34.052Z,1008.69
2017-06-27T09:47:33.990Z,1008.66
2017-06-27T09:48:33.926Z,1008.65
2017-06-27T09:49:33.864Z,1008.64
2017-06-27T09:50:33.802Z,1008.67
2017-06-27T09:51:33.740Z,1008.68
2017-06-27T09:52:33.678Z,1008.67
2017-06-27T09:53:33.616Z,1008.65
2017-06-27T09:54:33.555Z,1008.65
2017-06-27T09:55:33.491Z,1008.71
2017-06-27T09:56:33.429Z,1008.66
2017-06-27T09:57:33.367Z,1008.66
2017-06-27T09:58:33.305Z,1008.68
2017-06-27T09:59:33.242Z,1008.66
2017-06-27T10:00:33.184Z,1008.68
2017-06-27T10:01:33.119Z,1008.64
2017-06-27T10:02:33.059Z,1008.66
2017-06-27T10:03:32.996Z,1008.64
2017-06-27T10:04:32.934Z,1008.63
2017-06-27T10:05:32.871Z,1008.62
2017-06-27T10:06:32.808Z,1008.66
2017-06-27T10:07:32.746Z,1008.66
2017-06-27T10:08:32.684Z,1008.62
2017-06-27T10:09:32.622Z,1008.62
2017-06-27T10:10:32.561Z,1008.63
2017-06-27T10:11:32.497Z,1008.61
2017-06-27T10:12:32.436Z,1008.59
2017-06-27T10:13:32.373Z,1008.65
2017-06-27T10:14:32.313Z,1008.66
2017-06-27T10:15:32.349Z,1008.59
2017-06-27T10:16:32.188Z,1008.65
2017-06-27T10:17:32.126Z,1008.63
2017-06-27T10:18:32.062Z,1008.64
2017-06-27T10:19:32.011Z,1008.58
2017-06-27T10:20:31.938Z,1008.6
2017-06-27T10:21:31.875Z,1008.61
2017-06-27T10:22:31.813Z,1008.58
2017-06-27T10:23:31.751Z,1008.55
2017-06-27T10:24:31.688Z,1008.59
2017-06-27T10:25:31.625Z,1008.57
2017-06-27T10:26:31.563Z,1008.53
2017-06-27T10:27:31.501Z,1008.51
2017-06-27T10:28:31.438Z,1008.53
2017-06-27T10:29:31.377Z,1008.5
2017-06-27T10:30:31.315Z,1008.49
2017-06-27T10:31:31.253Z,1008.52
2017-06-27T10:32:31.188Z,1008.56
2017-06-27T10:33:31.127Z,1008.54
2017-06-27T10:34:31.065Z,1008.57
2017-06-27T10:35:31.002Z,1008.55
2017-06-27T10:36:30.940Z,1008.52
2017-06-27T10:37:30.879Z,1008.53
2017-06-27T10:38:30.814Z,1008.5
2017-06-27T10:39:30.752Z,1008.48
2017-06-27T10:40:30.690Z,1008.48
2017-06-27T10:41:30.627Z,1008.46
2017-06-27T10:42:30.564Z,1008.46
2017-06-27T10:43:30.503Z,1008.46
2017-06-27T10:44:30.440Z,1008.45
2017-06-27T10:45:30.379Z,1008.41
2017-06-27T10:46:30.316Z,1008.4
2017-06-27T10:47:30.253Z,1008.34
2017-06-27T10:48:30.192Z,1008.34
2017-06-27T10:49:30.130Z,1008.32
2017-06-27T10:50:30.068Z,1008.32
2017-06-27T10:51:30.016Z,1008.29
2017-06-27T10:52:29.943Z,1008.31
2017-06-27T10:53:29.882Z,1008.26
2017-06-27T10:54:29.817Z,1008.28
2017-06-27T10:55:29.754Z,1008.25
2017-06-27T10:56:29.691Z,1008.24
2017-06-27T10:57:29.627Z,1008.21
2017-06-27T10:58:29.577Z,1008.24
2017-06-27T10:59:29.504Z,1008.23
2017-06-27T11:00:29.442Z,1008.23
2017-06-27T11:01:29.379Z,1008.2
2017-06-27T11:02:29.316Z,1008.17
2017-06-27T11:03:29.253Z,1008.16
2017-06-27T11:04:29.193Z,1008.18
2017-06-27T11:05:29.130Z,1008.17
2017-06-27T11:06:29.067Z,1008.14
2017-06-27T11:07:29.014Z,1008.13
2017-06-27T11:08:28.942Z,1008.08
2017-06-27T11:09:28.881Z,1008.07
2017-06-27T11:10:28.817Z,1008.08
2017-06-27T11:11:28.756Z,1008.07
2017-06-27T11:12:28.699Z,1008.12
2017-06-27T11:13:28.629Z,1008.09
2017-06-27T11:14:28.567Z,1008.09
2017-06-27T11:15:28.508Z,1008.09
2017-06-27T11:16:28.442Z,1008.07
2017-06-27T11:17:28.380Z,1008.04
2017-06-27T11:18:28.325Z,1008.04
2017-06-27T11:19:28.255Z,1008.04
2017-06-27T11:20:28.342Z,1007.97
2017-06-27T11:21:28.130Z,1007.98
2017-06-27T11:22:28.067Z,1008.02
2017-06-27T11:23:28.005Z,1007.95
2017-06-27T11:24:27.944Z,1007.94
2017-06-27T11:25:27.881Z,1007.94
2017-06-27T11:26:27.818Z,1007.9
2017-06-27T11:27:27.756Z,1007.93
2017-06-27T11:28:27.694Z,1007.94
2017-06-27T11:29:27.630Z,1007.88
2017-06-27T11:30:27.568Z,1007.89
2017-06-27T11:31:27.505Z,1007.9
2017-06-27T11:32:27.444Z,1007.88
2017-06-27T11:33:27.383Z,1007.88
2017-06-27T11:34:27.319Z,1007.85
2017-06-27T11:35:27.257Z,1007.84
2017-06-27T11:36:27.195Z,1007.79
2017-06-27T11:37:27.132Z,1007.78
2017-06-27T11:38:27.070Z,1007.76
2017-06-27T11:39:27.007Z,1007.76
2017-06-27T11:40:26.947Z,1007.73
2017-06-27T11:41:26.892Z,1007.76
2017-06-27T11:42:26.820Z,1007.77
2017-06-27T11:43:26.757Z,1007.77
2017-06-27T11:44:26.697Z,1007.75
2017-06-27T11:45:26.633Z,1007.72
2017-06-27T11:46:26.571Z,1007.72
2017-06-27T11:47:26.510Z,1007.7
2017-06-27T11:48:26.448Z,1007.71
2017-06-27T11:49:26.393Z,1007.69
2017-06-27T11:50:26.325Z,1007.65
2017-06-27T11:51:26.260Z,1007.63
2017-06-27T11:52:26.216Z,1007.59
2017-06-27T11:53:26.136Z,1007.61
2017-06-27T11:54:26.073Z,1007.55
2017-06-27T11:55:26.012Z,1007.56
2017-06-27T11:56:25.948Z,1007.57
2017-06-27T11:57:25.888Z,1007.51
2017-06-27T11:58:25.824Z,1007.5
2017-06-27T11:59:25.762Z,1007.49
2017-06-27T12:00:25.699Z,1007.47
2017-06-27T12:01:25.711Z,1007.52
2017-06-27T12:02:25.576Z,1007.48
2017-06-27T12:03:25.513Z,1007.42
2017-06-27T12:04:25.449Z,1007.43
2017-06-27T12:05:25.488Z,1007.42
2017-06-27T12:06:25.326Z,1007.4
2017-06-27T12:07:25.327Z,1007.37
2017-06-27T12:08:25.202Z,1007.41